This is the latest recevied weather packets stored in our database for station/object K4HOG. If no packets are shown the sender has not sent any weather packets the latest 1 day(s).
| Time | Temp. | Humidity | Pressure | Rain* | Wind** | Luminosity | Snow |
|---|---|---|---|---|---|---|---|
| 1777985447 | 21.11° C | 81% | 1016 hPa | 0 mm | 0.45 m/s, 221° | 74 W/m² | - |
| 1777985144 | 20.56° C | 82% | 1016.1 hPa | 0 mm | 0 m/s | 106 W/m² | - |
| 1777984840 | 20.56° C | 83% | 1015.9 hPa | 0 mm | 0.45 m/s, 65° | 112 W/m² | - |
| 1777984537 | 20° C | 83% | 1016.2 hPa | 0 mm | 0.89 m/s, 74° | 119 W/m² | - |
| 1777984232 | 19.44° C | 84% | 1016.1 hPa | 0 mm | 0.45 m/s, 52° | 111 W/m² | - |
| 1777983930 | 19.44° C | 85% | 1015.9 hPa | 0 mm | 0 m/s | 83 W/m² | - |
| 1777983627 | 18.89° C | 85% | 1016.1 hPa | 0 mm | 0.45 m/s, 347° | 79 W/m² | - |
| 1777983323 | 19.44° C | 84% | 1016.1 hPa | 0 mm | 0.45 m/s, 60° | 75 W/m² | - |
| 1777983020 | 19.44° C | 86% | 1016.2 hPa | 0 mm | 0.45 m/s, 50° | 110 W/m² | - |
| 1777982716 | 18.89° C | 90% | 1016.1 hPa | 0 mm | 0 m/s | 100 W/m² | - |
| 1777982412 | 17.78° C | 94% | 1016.2 hPa | 0 mm | 0 m/s | 86 W/m² | - |
| 1777982107 | 17.22° C | 95% | 1016.1 hPa | 0 mm | 0 m/s | 76 W/m² | - |
| 1777981805 | 16.67° C | 96% | 1015.8 hPa | 0 mm | 0 m/s | 74 W/m² | - |
| 1777981502 | 16.67° C | 97% | 1015.8 hPa | 0 mm | 0 m/s | 66 W/m² | - |
| 1777981198 | 16.67° C | 97% | 1015.7 hPa | 0 mm | 0 m/s | 55 W/m² | - |
| 1777980894 | 15.56° C | 98% | 1015.8 hPa | 0 mm | 0 m/s | 49 W/m² | - |
| 1777980589 | 15.56° C | 98% | 1015.9 hPa | 0 mm | 0 m/s | 43 W/m² | - |
| 1777980288 | 15° C | 98% | 1015.7 hPa | 0 mm | 0 m/s | 36 W/m² | - |
| 1777979984 | 14.44° C | 98% | 1015.6 hPa | 0 mm | 0 m/s | 27 W/m² | - |
| 1777979678 | 14.44° C | 97% | 1015.8 hPa | 0 mm | 0 m/s | 19 W/m² | - |
| 1777979375 | 14.44° C | 97% | 1015.5 hPa | 0 mm | 0 m/s | 15 W/m² | - |
| 1777979072 | 14.44° C | 97% | 1015.6 hPa | 0 mm | 0 m/s | 13 W/m² | - |
| 1777978768 | 14.44° C | 97% | 1015.4 hPa | 0 mm | 0 m/s | 11 W/m² | - |
| 1777978465 | 14.44° C | 97% | 1015.2 hPa | 0 mm | 0 m/s | 8 W/m² | - |
| 1777978161 | 14.44° C | 97% | 1015.1 hPa | 0 mm | 0 m/s | 5 W/m² | - |
* Rain latest hour (hover to see other rain measurements)
** Current wind speed in m/s (hover to see current wind gust speed)